sensor_id;sensor_type;location;lat;lon;timestamp;temperature;humidity
20068;DHT22;10194;50.824;7.134;2023-12-04T00:01:47;0.60;99.90
20068;DHT22;10194;50.824;7.134;2023-12-04T00:04:13;0.50;99.90
20068;DHT22;10194;50.824;7.134;2023-12-04T00:06:40;0.60;99.90
20068;DHT22;10194;50.824;7.134;2023-12-04T00:09:06;0.50;99.90
20068;DHT22;10194;50.824;7.134;2023-12-04T00:11:32;0.50;99.90
20068;DHT22;10194;50.824;7.134;2023-12-04T00:13:58;0.60;99.90
20068;DHT22;10194;50.824;7.134;2023-12-04T00:16:24;0.60;99.90
20068;DHT22;10194;50.824;7.134;2023-12-04T00:18:50;0.70;99.90
20068;DHT22;10194;50.824;7.134;2023-12-04T00:21:16;0.60;99.90
20068;DHT22;10194;50.824;7.134;2023-12-04T00:23:42;0.70;99.90
20068;DHT22;10194;50.824;7.134;2023-12-04T00:26:08;0.70;99.90
20068;DHT22;10194;50.824;7.134;2023-12-04T00:28:36;0.60;99.90
20068;DHT22;10194;50.824;7.134;2023-12-04T00:31:02;0.70;99.90
20068;DHT22;10194;50.824;7.134;2023-12-04T00:33:28;0.70;99.90
20068;DHT22;10194;50.824;7.134;2023-12-04T00:35:54;0.60;99.90
20068;DHT22;10194;50.824;7.134;2023-12-04T00:38:19;0.60;99.90
20068;DHT22;10194;50.824;7.134;2023-12-04T00:40:45;0.50;99.90
20068;DHT22;10194;50.824;7.134;2023-12-04T00:43:11;0.50;99.90
20068;DHT22;10194;50.824;7.134;2023-12-04T00:45:37;0.50;99.90
20068;DHT22;10194;50.824;7.134;2023-12-04T00:48:03;0.50;99.90
20068;DHT22;10194;50.824;7.134;2023-12-04T00:50:29;0.50;99.90
20068;DHT22;10194;50.824;7.134;2023-12-04T00:52:54;0.50;99.90
20068;DHT22;10194;50.824;7.134;2023-12-04T00:55:20;0.50;99.90
20068;DHT22;10194;50.824;7.134;2023-12-04T00:57:46;0.50;99.90
20068;DHT22;10194;50.824;7.134;2023-12-04T01:00:12;0.50;99.90
20068;DHT22;10194;50.824;7.134;2023-12-04T01:02:39;0.50;99.90
20068;DHT22;10194;50.824;7.134;2023-12-04T01:05:05;0.50;99.90
20068;DHT22;10194;50.824;7.134;2023-12-04T01:07:31;0.50;99.90
20068;DHT22;10194;50.824;7.134;2023-12-04T01:09:57;0.50;99.90
20068;DHT22;10194;50.824;7.134;2023-12-04T01:12:23;0.50;99.90
20068;DHT22;10194;50.824;7.134;2023-12-04T01:14:49;0.50;99.90
20068;DHT22;10194;50.824;7.134;2023-12-04T01:17:14;0.40;99.90
20068;DHT22;10194;50.824;7.134;2023-12-04T01:19:40;0.60;99.90
20068;DHT22;10194;50.824;7.134;2023-12-04T01:22:06;0.50;99.90
20068;DHT22;10194;50.824;7.134;2023-12-04T01:24:32;0.50;99.90
20068;DHT22;10194;50.824;7.134;2023-12-04T01:26:57;0.50;99.90
20068;DHT22;10194;50.824;7.134;2023-12-04T01:29:23;0.40;99.90
20068;DHT22;10194;50.824;7.134;2023-12-04T01:31:49;0.50;99.90
20068;DHT22;10194;50.824;7.134;2023-12-04T01:34:15;0.50;99.90
20068;DHT22;10194;50.824;7.134;2023-12-04T01:36:41;0.40;99.90
20068;DHT22;10194;50.824;7.134;2023-12-04T01:39:07;0.40;99.90
20068;DHT22;10194;50.824;7.134;2023-12-04T01:41:33;0.40;99.90
20068;DHT22;10194;50.824;7.134;2023-12-04T01:43:59;0.50;99.90
20068;DHT22;10194;50.824;7.134;2023-12-04T01:46:25;0.50;99.90
20068;DHT22;10194;50.824;7.134;2023-12-04T01:48:51;0.60;99.90
20068;DHT22;10194;50.824;7.134;2023-12-04T01:51:19;0.60;99.90
20068;DHT22;10194;50.824;7.134;2023-12-04T01:53:45;0.60;99.90
20068;DHT22;10194;50.824;7.134;2023-12-04T01:56:12;0.60;99.90
20068;DHT22;10194;50.824;7.134;2023-12-04T01:58:39;0.60;99.90
20068;DHT22;10194;50.824;7.134;2023-12-04T02:01:05;0.60;99.90
20068;DHT22;10194;50.824;7.134;2023-12-04T02:03:32;0.60;99.90
20068;DHT22;10194;50.824;7.134;2023-12-04T02:05:59;0.50;99.90
20068;DHT22;10194;50.824;7.134;2023-12-04T02:08:28;0.60;99.90
20068;DHT22;10194;50.824;7.134;2023-12-04T02:10:54;0.60;99.90
20068;DHT22;10194;50.824;7.134;2023-12-04T02:13:20;0.60;99.90
20068;DHT22;10194;50.824;7.134;2023-12-04T02:15:49;0.60;99.90
20068;DHT22;10194;50.824;7.134;2023-12-04T02:18:16;0.50;99.90
20068;DHT22;10194;50.824;7.134;2023-12-04T02:20:43;0.50;99.90
20068;DHT22;10194;50.824;7.134;2023-12-04T02:23:09;0.50;99.90
20068;DHT22;10194;50.824;7.134;2023-12-04T02:25:34;0.50;99.90
20068;DHT22;10194;50.824;7.134;2023-12-04T02:28:04;0.50;99.90
20068;DHT22;10194;50.824;7.134;2023-12-04T02:30:31;0.50;99.90
20068;DHT22;10194;50.824;7.134;2023-12-04T02:33:02;0.50;99.90
20068;DHT22;10194;50.824;7.134;2023-12-04T02:35:32;0.50;99.90
20068;DHT22;10194;50.824;7.134;2023-12-04T02:38:03;0.50;99.90
20068;DHT22;10194;50.824;7.134;2023-12-04T02:40:29;0.50;99.90
20068;DHT22;10194;50.824;7.134;2023-12-04T02:42:55;0.40;99.90
20068;DHT22;10194;50.824;7.134;2023-12-04T02:45:20;0.50;99.90
20068;DHT22;10194;50.824;7.134;2023-12-04T02:47:46;0.60;99.90
20068;DHT22;10194;50.824;7.134;2023-12-04T02:50:12;0.60;99.90
20068;DHT22;10194;50.824;7.134;2023-12-04T02:52:38;0.50;99.90
20068;DHT22;10194;50.824;7.134;2023-12-04T02:55:04;0.50;99.90
20068;DHT22;10194;50.824;7.134;2023-12-04T02:57:30;0.50;99.90
20068;DHT22;10194;50.824;7.134;2023-12-04T02:59:56;0.50;99.90
20068;DHT22;10194;50.824;7.134;2023-12-04T03:02:21;0.50;99.90
20068;DHT22;10194;50.824;7.134;2023-12-04T03:04:47;0.50;99.90
20068;DHT22;10194;50.824;7.134;2023-12-04T03:07:13;0.40;99.90
20068;DHT22;10194;50.824;7.134;2023-12-04T03:09:39;0.40;99.90
20068;DHT22;10194;50.824;7.134;2023-12-04T03:12:05;0.40;99.90
20068;DHT22;10194;50.824;7.134;2023-12-04T03:14:31;0.40;99.90
20068;DHT22;10194;50.824;7.134;2023-12-04T03:16:56;0.40;99.90
20068;DHT22;10194;50.824;7.134;2023-12-04T03:19:22;0.30;99.90
20068;DHT22;10194;50.824;7.134;2023-12-04T03:21:48;0.30;99.90
20068;DHT22;10194;50.824;7.134;2023-12-04T03:24:14;0.30;99.90
20068;DHT22;10194;50.824;7.134;2023-12-04T03:26:40;0.20;99.90
20068;DHT22;10194;50.824;7.134;2023-12-04T03:29:06;0.30;99.90
20068;DHT22;10194;50.824;7.134;2023-12-04T03:31:31;0.30;99.90
20068;DHT22;10194;50.824;7.134;2023-12-04T03:33:59;0.30;99.90
20068;DHT22;10194;50.824;7.134;2023-12-04T03:36:25;0.30;99.90
20068;DHT22;10194;50.824;7.134;2023-12-04T03:38:51;0.30;99.90
20068;DHT22;10194;50.824;7.134;2023-12-04T03:41:16;0.20;99.90
20068;DHT22;10194;50.824;7.134;2023-12-04T03:43:42;0.30;99.90
20068;DHT22;10194;50.824;7.134;2023-12-04T03:46:08;0.20;99.90
20068;DHT22;10194;50.824;7.134;2023-12-04T03:48:35;0.20;99.90
20068;DHT22;10194;50.824;7.134;2023-12-04T03:51:03;0.20;99.90
20068;DHT22;10194;50.824;7.134;2023-12-04T03:53:33;0.30;99.90
20068;DHT22;10194;50.824;7.134;2023-12-04T03:55:59;0.20;99.90
20068;DHT22;10194;50.824;7.134;2023-12-04T03:58:25;0.20;99.90
20068;DHT22;10194;50.824;7.134;2023-12-04T04:00:51;0.20;99.90
20068;DHT22;10194;50.824;7.134;2023-12-04T04:03:17;0.20;99.90
20068;DHT22;10194;50.824;7.134;2023-12-04T04:05:42;0.30;99.90
20068;DHT22;10194;50.824;7.134;2023-12-04T04:08:08;0.20;99.90
20068;DHT22;10194;50.824;7.134;2023-12-04T04:10:34;0.20;99.90
20068;DHT22;10194;50.824;7.134;2023-12-04T04:13:00;0.20;99.90
20068;DHT22;10194;50.824;7.134;2023-12-04T04:15:26;0.20;99.90
20068;DHT22;10194;50.824;7.134;2023-12-04T04:17:52;0.20;99.90
20068;DHT22;10194;50.824;7.134;2023-12-04T04:20:18;0.30;99.90
20068;DHT22;10194;50.824;7.134;2023-12-04T04:22:44;0.30;99.90
20068;DHT22;10194;50.824;7.134;2023-12-04T04:25:12;0.30;99.90
20068;DHT22;10194;50.824;7.134;2023-12-04T04:27:37;0.30;99.90
20068;DHT22;10194;50.824;7.134;2023-12-04T04:30:04;0.40;99.90
20068;DHT22;10194;50.824;7.134;2023-12-04T04:32:30;0.40;99.90
20068;DHT22;10194;50.824;7.134;2023-12-04T04:34:56;0.50;99.90
20068;DHT22;10194;50.824;7.134;2023-12-04T04:37:21;0.40;99.90
20068;DHT22;10194;50.824;7.134;2023-12-04T04:39:47;0.40;99.90
20068;DHT22;10194;50.824;7.134;2023-12-04T04:42:14;0.40;99.90
20068;DHT22;10194;50.824;7.134;2023-12-04T04:44:40;0.40;99.90
20068;DHT22;10194;50.824;7.134;2023-12-04T04:47:06;0.50;99.90
20068;DHT22;10194;50.824;7.134;2023-12-04T04:49:32;0.40;99.90
20068;DHT22;10194;50.824;7.134;2023-12-04T04:51:57;0.40;99.90
20068;DHT22;10194;50.824;7.134;2023-12-04T04:54:23;0.40;99.90
20068;DHT22;10194;50.824;7.134;2023-12-04T04:56:49;0.40;99.90
20068;DHT22;10194;50.824;7.134;2023-12-04T04:59:15;0.40;99.90
20068;DHT22;10194;50.824;7.134;2023-12-04T05:01:40;0.40;99.90
20068;DHT22;10194;50.824;7.134;2023-12-04T05:04:06;0.40;99.90
20068;DHT22;10194;50.824;7.134;2023-12-04T05:06:32;0.30;99.90
20068;DHT22;10194;50.824;7.134;2023-12-04T05:08:58;0.30;99.90
20068;DHT22;10194;50.824;7.134;2023-12-04T05:11:24;0.40;99.90
20068;DHT22;10194;50.824;7.134;2023-12-04T05:13:50;0.40;99.90
20068;DHT22;10194;50.824;7.134;2023-12-04T05:16:16;0.30;99.90
20068;DHT22;10194;50.824;7.134;2023-12-04T05:18:42;0.30;99.90
20068;DHT22;10194;50.824;7.134;2023-12-04T05:21:09;0.30;99.90
20068;DHT22;10194;50.824;7.134;2023-12-04T05:23:35;0.30;99.90
20068;DHT22;10194;50.824;7.134;2023-12-04T05:26:05;0.20;99.90
20068;DHT22;10194;50.824;7.134;2023-12-04T05:28:31;0.30;99.90
20068;DHT22;10194;50.824;7.134;2023-12-04T05:30:57;0.30;99.90
20068;DHT22;10194;50.824;7.134;2023-12-04T05:33:23;0.30;99.90
20068;DHT22;10194;50.824;7.134;2023-12-04T05:35:48;0.30;99.90
20068;DHT22;10194;50.824;7.134;2023-12-04T05:38:16;0.20;99.90
20068;DHT22;10194;50.824;7.134;2023-12-04T05:40:42;0.30;99.90
20068;DHT22;10194;50.824;7.134;2023-12-04T05:43:08;0.30;99.90
20068;DHT22;10194;50.824;7.134;2023-12-04T05:45:33;0.30;99.90
20068;DHT22;10194;50.824;7.134;2023-12-04T05:47:59;0.30;99.90
20068;DHT22;10194;50.824;7.134;2023-12-04T05:50:25;0.30;99.90
20068;DHT22;10194;50.824;7.134;2023-12-04T05:52:51;0.30;99.90
20068;DHT22;10194;50.824;7.134;2023-12-04T05:55:17;0.40;99.90
20068;DHT22;10194;50.824;7.134;2023-12-04T05:57:43;0.30;99.90
20068;DHT22;10194;50.824;7.134;2023-12-04T06:00:10;0.30;99.90
20068;DHT22;10194;50.824;7.134;2023-12-04T06:02:42;0.40;99.90
20068;DHT22;10194;50.824;7.134;2023-12-04T06:05:09;0.30;99.90
20068;DHT22;10194;50.824;7.134;2023-12-04T06:07:35;0.30;99.90
20068;DHT22;10194;50.824;7.134;2023-12-04T06:10:02;0.40;99.90
20068;DHT22;10194;50.824;7.134;2023-12-04T06:12:32;0.50;99.90
20068;DHT22;10194;50.824;7.134;2023-12-04T06:14:58;0.50;99.90
20068;DHT22;10194;50.824;7.134;2023-12-04T06:17:24;0.50;99.90
20068;DHT22;10194;50.824;7.134;2023-12-04T06:19:51;0.50;99.90
20068;DHT22;10194;50.824;7.134;2023-12-04T06:22:17;0.60;99.90
20068;DHT22;10194;50.824;7.134;2023-12-04T06:24:45;0.60;99.90
20068;DHT22;10194;50.824;7.134;2023-12-04T06:27:17;0.60;99.90
20068;DHT22;10194;50.824;7.134;2023-12-04T06:29:47;0.50;99.90
20068;DHT22;10194;50.824;7.134;2023-12-04T06:32:14;0.50;99.90
20068;DHT22;10194;50.824;7.134;2023-12-04T06:34:40;0.40;99.90
20068;DHT22;10194;50.824;7.134;2023-12-04T06:37:10;0.40;99.90
20068;DHT22;10194;50.824;7.134;2023-12-04T06:39:38;0.40;99.90
20068;DHT22;10194;50.824;7.134;2023-12-04T06:42:08;0.20;99.90
20068;DHT22;10194;50.824;7.134;2023-12-04T06:44:35;0.30;99.90
20068;DHT22;10194;50.824;7.134;2023-12-04T06:47:02;0.30;99.90
20068;DHT22;10194;50.824;7.134;2023-12-04T06:49:32;0.20;99.90
20068;DHT22;10194;50.824;7.134;2023-12-04T06:51:59;0.20;99.90
20068;DHT22;10194;50.824;7.134;2023-12-04T06:54:25;0.20;99.90
20068;DHT22;10194;50.824;7.134;2023-12-04T06:56:52;0.20;99.90
20068;DHT22;10194;50.824;7.134;2023-12-04T06:59:18;0.20;99.90
20068;DHT22;10194;50.824;7.134;2023-12-04T07:01:44;0.20;99.90
20068;DHT22;10194;50.824;7.134;2023-12-04T07:04:10;0.10;99.90
20068;DHT22;10194;50.824;7.134;2023-12-04T07:06:37;0.10;99.90
20068;DHT22;10194;50.824;7.134;2023-12-04T07:09:03;0.20;99.90
20068;DHT22;10194;50.824;7.134;2023-12-04T07:11:29;0.10;99.90
20068;DHT22;10194;50.824;7.134;2023-12-04T07:13:55;0.10;99.90
20068;DHT22;10194;50.824;7.134;2023-12-04T07:16:21;0.10;99.90
20068;DHT22;10194;50.824;7.134;2023-12-04T07:18:46;0.10;99.90
20068;DHT22;10194;50.824;7.134;2023-12-04T07:21:12;0.10;99.90
20068;DHT22;10194;50.824;7.134;2023-12-04T07:23:38;0.10;99.90
20068;DHT22;10194;50.824;7.134;2023-12-04T07:26:04;0.20;99.90
20068;DHT22;10194;50.824;7.134;2023-12-04T07:28:32;0.20;99.90
20068;DHT22;10194;50.824;7.134;2023-12-04T07:30:58;0.10;99.90
20068;DHT22;10194;50.824;7.134;2023-12-04T07:33:27;0.20;99.90
20068;DHT22;10194;50.824;7.134;2023-12-04T07:35:53;0.30;99.90
20068;DHT22;10194;50.824;7.134;2023-12-04T07:38:19;0.20;99.90
20068;DHT22;10194;50.824;7.134;2023-12-04T07:40:47;0.20;99.90
20068;DHT22;10194;50.824;7.134;2023-12-04T07:43:13;0.20;99.90
20068;DHT22;10194;50.824;7.134;2023-12-04T07:45:43;0.20;99.90
20068;DHT22;10194;50.824;7.134;2023-12-04T07:48:09;0.20;99.90
20068;DHT22;10194;50.824;7.134;2023-12-04T07:50:34;0.30;99.90
20068;DHT22;10194;50.824;7.134;2023-12-04T07:53:01;0.20;99.90
20068;DHT22;10194;50.824;7.134;2023-12-04T07:55:27;0.30;99.90
20068;DHT22;10194;50.824;7.134;2023-12-04T07:57:52;0.30;99.90
20068;DHT22;10194;50.824;7.134;2023-12-04T08:00:19;0.30;99.90
20068;DHT22;10194;50.824;7.134;2023-12-04T08:02:45;0.30;99.90
20068;DHT22;10194;50.824;7.134;2023-12-04T08:05:12;0.30;99.90
20068;DHT22;10194;50.824;7.134;2023-12-04T08:07:38;0.30;99.90
20068;DHT22;10194;50.824;7.134;2023-12-04T08:10:04;0.30;99.90
20068;DHT22;10194;50.824;7.134;2023-12-04T08:12:31;0.30;99.90
20068;DHT22;10194;50.824;7.134;2023-12-04T08:14:59;0.40;99.90
20068;DHT22;10194;50.824;7.134;2023-12-04T08:17:25;0.40;99.90
20068;DHT22;10194;50.824;7.134;2023-12-04T08:19:50;0.40;99.90
20068;DHT22;10194;50.824;7.134;2023-12-04T08:22:16;0.40;99.90
20068;DHT22;10194;50.824;7.134;2023-12-04T08:24:42;0.60;99.90
20068;DHT22;10194;50.824;7.134;2023-12-04T08:27:08;0.50;99.90
20068;DHT22;10194;50.824;7.134;2023-12-04T08:29:33;0.50;99.90
20068;DHT22;10194;50.824;7.134;2023-12-04T08:32:00;0.40;99.90
20068;DHT22;10194;50.824;7.134;2023-12-04T08:34:26;0.50;99.90
20068;DHT22;10194;50.824;7.134;2023-12-04T08:36:51;0.40;99.90
20068;DHT22;10194;50.824;7.134;2023-12-04T08:39:17;0.40;99.90
20068;DHT22;10194;50.824;7.134;2023-12-04T08:41:46;0.50;99.90
20068;DHT22;10194;50.824;7.134;2023-12-04T08:44:15;0.50;99.90
20068;DHT22;10194;50.824;7.134;2023-12-04T08:46:42;0.50;99.90
20068;DHT22;10194;50.824;7.134;2023-12-04T08:49:09;0.50;99.90
20068;DHT22;10194;50.824;7.134;2023-12-04T08:51:35;0.40;99.90
20068;DHT22;10194;50.824;7.134;2023-12-04T08:54:01;0.40;99.90
20068;DHT22;10194;50.824;7.134;2023-12-04T08:56:28;0.50;99.90
20068;DHT22;10194;50.824;7.134;2023-12-04T08:58:55;0.60;99.90
20068;DHT22;10194;50.824;7.134;2023-12-04T09:01:21;0.60;99.90
20068;DHT22;10194;50.824;7.134;2023-12-04T09:03:46;0.60;99.90
20068;DHT22;10194;50.824;7.134;2023-12-04T09:06:12;0.70;99.90
20068;DHT22;10194;50.824;7.134;2023-12-04T09:08:38;0.60;99.90
20068;DHT22;10194;50.824;7.134;2023-12-04T09:11:04;0.60;99.90
20068;DHT22;10194;50.824;7.134;2023-12-04T09:13:29;0.70;99.90
20068;DHT22;10194;50.824;7.134;2023-12-04T09:15:57;0.70;99.90
20068;DHT22;10194;50.824;7.134;2023-12-04T09:18:22;0.70;99.90
20068;DHT22;10194;50.824;7.134;2023-12-04T09:20:48;0.70;99.90
20068;DHT22;10194;50.824;7.134;2023-12-04T09:23:14;0.70;99.90
20068;DHT22;10194;50.824;7.134;2023-12-04T09:25:39;0.70;99.90
20068;DHT22;10194;50.824;7.134;2023-12-04T09:28:05;0.70;99.90
20068;DHT22;10194;50.824;7.134;2023-12-04T09:30:31;0.80;99.90
20068;DHT22;10194;50.824;7.134;2023-12-04T09:32:57;1.00;99.90
20068;DHT22;10194;50.824;7.134;2023-12-04T09:35:22;1.10;99.90
20068;DHT22;10194;50.824;7.134;2023-12-04T09:37:48;1.00;99.90
20068;DHT22;10194;50.824;7.134;2023-12-04T09:40:16;1.10;99.90
20068;DHT22;10194;50.824;7.134;2023-12-04T09:42:42;1.20;99.90
20068;DHT22;10194;50.824;7.134;2023-12-04T09:45:09;0.90;99.90
20068;DHT22;10194;50.824;7.134;2023-12-04T09:47:35;0.90;99.90
20068;DHT22;10194;50.824;7.134;2023-12-04T09:50:02;0.90;99.90
20068;DHT22;10194;50.824;7.134;2023-12-04T09:52:28;1.00;99.90
20068;DHT22;10194;50.824;7.134;2023-12-04T09:54:54;1.00;99.90
20068;DHT22;10194;50.824;7.134;2023-12-04T09:57:22;1.10;99.90
20068;DHT22;10194;50.824;7.134;2023-12-04T09:59:50;1.20;99.90
20068;DHT22;10194;50.824;7.134;2023-12-04T10:02:17;1.20;99.90
20068;DHT22;10194;50.824;7.134;2023-12-04T10:04:43;1.20;99.90
20068;DHT22;10194;50.824;7.134;2023-12-04T10:07:08;1.30;99.90
20068;DHT22;10194;50.824;7.134;2023-12-04T10:09:34;1.30;99.90
20068;DHT22;10194;50.824;7.134;2023-12-04T10:12:00;1.30;99.90
20068;DHT22;10194;50.824;7.134;2023-12-04T10:14:26;1.30;99.90
20068;DHT22;10194;50.824;7.134;2023-12-04T10:16:51;1.30;99.90
20068;DHT22;10194;50.824;7.134;2023-12-04T10:19:22;1.30;99.90
20068;DHT22;10194;50.824;7.134;2023-12-04T10:21:52;1.30;99.90
20068;DHT22;10194;50.824;7.134;2023-12-04T10:24:37;1.30;99.90
20068;DHT22;10194;50.824;7.134;2023-12-04T10:27:05;1.40;99.90
20068;DHT22;10194;50.824;7.134;2023-12-04T10:29:41;1.30;99.90
20068;DHT22;10194;50.824;7.134;2023-12-04T10:32:17;1.40;99.90
20068;DHT22;10194;50.824;7.134;2023-12-04T10:34:47;1.40;99.90
20068;DHT22;10194;50.824;7.134;2023-12-04T10:37:13;1.40;99.90
20068;DHT22;10194;50.824;7.134;2023-12-04T10:39:46;1.60;99.90
20068;DHT22;10194;50.824;7.134;2023-12-04T10:42:29;1.70;99.90
20068;DHT22;10194;50.824;7.134;2023-12-04T10:44:59;1.50;99.90
20068;DHT22;10194;50.824;7.134;2023-12-04T10:47:27;1.60;99.90
20068;DHT22;10194;50.824;7.134;2023-12-04T10:49:54;1.80;99.90
20068;DHT22;10194;50.824;7.134;2023-12-04T10:52:21;1.90;99.90
20068;DHT22;10194;50.824;7.134;2023-12-04T10:54:50;1.90;99.90
20068;DHT22;10194;50.824;7.134;2023-12-04T10:57:27;1.90;99.90
20068;DHT22;10194;50.824;7.134;2023-12-04T10:59:58;1.90;99.90
20068;DHT22;10194;50.824;7.134;2023-12-04T11:02:29;1.90;99.90
20068;DHT22;10194;50.824;7.134;2023-12-04T11:05:06;1.90;99.90
20068;DHT22;10194;50.824;7.134;2023-12-04T11:07:41;1.80;99.90
20068;DHT22;10194;50.824;7.134;2023-12-04T11:10:08;1.80;99.90
20068;DHT22;10194;50.824;7.134;2023-12-04T11:12:36;1.90;99.90
20068;DHT22;10194;50.824;7.134;2023-12-04T11:15:06;1.80;99.90
20068;DHT22;10194;50.824;7.134;2023-12-04T11:17:34;1.90;99.90
20068;DHT22;10194;50.824;7.134;2023-12-04T11:20:08;1.90;99.90
20068;DHT22;10194;50.824;7.134;2023-12-04T11:22:38;2.00;99.90
20068;DHT22;10194;50.824;7.134;2023-12-04T11:25:06;1.90;99.90
20068;DHT22;10194;50.824;7.134;2023-12-04T11:27:34;1.90;99.90
20068;DHT22;10194;50.824;7.134;2023-12-04T11:30:00;1.60;99.90
20068;DHT22;10194;50.824;7.134;2023-12-04T11:32:28;1.60;99.90
20068;DHT22;10194;50.824;7.134;2023-12-04T11:34:56;1.60;99.90
20068;DHT22;10194;50.824;7.134;2023-12-04T11:37:26;1.40;99.90
20068;DHT22;10194;50.824;7.134;2023-12-04T11:39:53;1.50;99.90
20068;DHT22;10194;50.824;7.134;2023-12-04T11:42:25;1.50;99.90
20068;DHT22;10194;50.824;7.134;2023-12-04T11:44:59;1.50;99.90
20068;DHT22;10194;50.824;7.134;2023-12-04T11:47:28;1.50;99.90
20068;DHT22;10194;50.824;7.134;2023-12-04T11:49:53;1.40;99.90
20068;DHT22;10194;50.824;7.134;2023-12-04T11:52:32;1.50;99.90
20068;DHT22;10194;50.824;7.134;2023-12-04T11:55:02;1.50;99.90
20068;DHT22;10194;50.824;7.134;2023-12-04T11:57:35;1.40;99.90
20068;DHT22;10194;50.824;7.134;2023-12-04T12:05:18;1.50;99.90
20068;DHT22;10194;50.824;7.134;2023-12-04T12:07:45;1.40;99.90
20068;DHT22;10194;50.824;7.134;2023-12-04T12:10:11;1.50;99.90
20068;DHT22;10194;50.824;7.134;2023-12-04T12:12:39;1.40;99.90
20068;DHT22;10194;50.824;7.134;2023-12-04T12:15:10;1.50;99.90
20068;DHT22;10194;50.824;7.134;2023-12-04T12:17:40;1.50;99.90
20068;DHT22;10194;50.824;7.134;2023-12-04T12:20:12;1.50;99.90
20068;DHT22;10194;50.824;7.134;2023-12-04T12:22:39;1.50;99.90
20068;DHT22;10194;50.824;7.134;2023-12-04T12:25:08;1.50;99.90
20068;DHT22;10194;50.824;7.134;2023-12-04T12:27:34;1.30;99.90
20068;DHT22;10194;50.824;7.134;2023-12-04T12:30:00;1.40;99.90
20068;DHT22;10194;50.824;7.134;2023-12-04T12:32:27;1.40;99.90
20068;DHT22;10194;50.824;7.134;2023-12-04T12:34:55;1.30;99.90
20068;DHT22;10194;50.824;7.134;2023-12-04T12:37:21;1.30;99.90
20068;DHT22;10194;50.824;7.134;2023-12-04T12:39:47;1.30;99.90
20068;DHT22;10194;50.824;7.134;2023-12-04T12:42:27;1.30;99.90
20068;DHT22;10194;50.824;7.134;2023-12-04T12:44:54;1.20;99.90
20068;DHT22;10194;50.824;7.134;2023-12-04T12:47:21;1.30;99.90
20068;DHT22;10194;50.824;7.134;2023-12-04T12:49:48;1.40;99.90
20068;DHT22;10194;50.824;7.134;2023-12-04T12:52:14;1.40;99.90
20068;DHT22;10194;50.824;7.134;2023-12-04T12:54:41;1.40;99.90
20068;DHT22;10194;50.824;7.134;2023-12-04T12:57:08;1.30;99.90
20068;DHT22;10194;50.824;7.134;2023-12-04T12:59:41;1.30;99.90
20068;DHT22;10194;50.824;7.134;2023-12-04T13:02:07;1.30;99.90
20068;DHT22;10194;50.824;7.134;2023-12-04T13:04:36;1.30;99.90
20068;DHT22;10194;50.824;7.134;2023-12-04T13:07:03;1.20;99.90
20068;DHT22;10194;50.824;7.134;2023-12-04T13:09:31;1.30;99.90
20068;DHT22;10194;50.824;7.134;2023-12-04T13:11:58;1.20;99.90
20068;DHT22;10194;50.824;7.134;2023-12-04T13:14:25;1.20;99.90
20068;DHT22;10194;50.824;7.134;2023-12-04T13:16:51;1.20;99.90
20068;DHT22;10194;50.824;7.134;2023-12-04T13:19:17;1.20;99.90
20068;DHT22;10194;50.824;7.134;2023-12-04T13:21:43;1.10;99.90
20068;DHT22;10194;50.824;7.134;2023-12-04T13:24:10;1.20;99.90
20068;DHT22;10194;50.824;7.134;2023-12-04T13:26:37;1.20;99.90
20068;DHT22;10194;50.824;7.134;2023-12-04T13:29:03;1.10;99.90
20068;DHT22;10194;50.824;7.134;2023-12-04T13:31:29;1.20;99.90
20068;DHT22;10194;50.824;7.134;2023-12-04T13:33:55;1.20;99.90
20068;DHT22;10194;50.824;7.134;2023-12-04T13:36:21;1.30;99.90
20068;DHT22;10194;50.824;7.134;2023-12-04T13:38:46;1.30;99.90
20068;DHT22;10194;50.824;7.134;2023-12-04T13:41:12;1.30;99.90
20068;DHT22;10194;50.824;7.134;2023-12-04T13:44:04;1.30;99.90
20068;DHT22;10194;50.824;7.134;2023-12-04T13:46:30;1.40;99.90
20068;DHT22;10194;50.824;7.134;2023-12-04T13:48:57;1.40;99.90
20068;DHT22;10194;50.824;7.134;2023-12-04T13:51:24;1.30;99.90
20068;DHT22;10194;50.824;7.134;2023-12-04T13:53:51;1.30;99.90
20068;DHT22;10194;50.824;7.134;2023-12-04T13:56:21;1.30;99.90
20068;DHT22;10194;50.824;7.134;2023-12-04T13:59:07;1.30;99.90
20068;DHT22;10194;50.824;7.134;2023-12-04T14:01:33;1.20;99.90
20068;DHT22;10194;50.824;7.134;2023-12-04T14:03:59;1.20;99.90
20068;DHT22;10194;50.824;7.134;2023-12-04T14:06:31;1.20;99.90
20068;DHT22;10194;50.824;7.134;2023-12-04T14:08:58;1.20;99.90
20068;DHT22;10194;50.824;7.134;2023-12-04T14:11:24;1.20;99.90
20068;DHT22;10194;50.824;7.134;2023-12-04T14:13:49;1.30;99.90
20068;DHT22;10194;50.824;7.134;2023-12-04T14:16:16;1.20;99.90
20068;DHT22;10194;50.824;7.134;2023-12-04T14:18:42;1.10;99.90
20068;DHT22;10194;50.824;7.134;2023-12-04T14:21:08;1.10;99.90
20068;DHT22;10194;50.824;7.134;2023-12-04T14:23:34;1.10;99.90
20068;DHT22;10194;50.824;7.134;2023-12-04T14:26:00;1.10;99.90
20068;DHT22;10194;50.824;7.134;2023-12-04T14:28:27;1.10;99.90
20068;DHT22;10194;50.824;7.134;2023-12-04T14:30:54;1.20;99.90
20068;DHT22;10194;50.824;7.134;2023-12-04T14:33:21;1.20;99.90
20068;DHT22;10194;50.824;7.134;2023-12-04T14:35:47;1.20;99.90
20068;DHT22;10194;50.824;7.134;2023-12-04T14:38:13;1.20;99.90
20068;DHT22;10194;50.824;7.134;2023-12-04T14:40:40;1.20;99.90
20068;DHT22;10194;50.824;7.134;2023-12-04T14:43:06;1.20;99.90
20068;DHT22;10194;50.824;7.134;2023-12-04T14:45:38;1.20;99.90
20068;DHT22;10194;50.824;7.134;2023-12-04T14:48:04;1.20;99.90
20068;DHT22;10194;50.824;7.134;2023-12-04T14:50:33;1.20;99.90
20068;DHT22;10194;50.824;7.134;2023-12-04T14:53:01;1.30;99.90
20068;DHT22;10194;50.824;7.134;2023-12-04T14:55:41;1.30;99.90
20068;DHT22;10194;50.824;7.134;2023-12-04T14:58:34;1.30;99.90
20068;DHT22;10194;50.824;7.134;2023-12-04T15:01:35;1.20;99.90
20068;DHT22;10194;50.824;7.134;2023-12-04T15:04:19;1.30;99.90
20068;DHT22;10194;50.824;7.134;2023-12-04T15:07:03;1.40;99.90
20068;DHT22;10194;50.824;7.134;2023-12-04T15:09:47;1.40;99.90
20068;DHT22;10194;50.824;7.134;2023-12-04T15:12:51;1.40;99.90
20068;DHT22;10194;50.824;7.134;2023-12-04T15:15:52;1.40;99.90
20068;DHT22;10194;50.824;7.134;2023-12-04T15:18:36;1.40;99.90
20068;DHT22;10194;50.824;7.134;2023-12-04T15:21:08;1.50;99.90
20068;DHT22;10194;50.824;7.134;2023-12-04T15:23:34;1.40;99.90
20068;DHT22;10194;50.824;7.134;2023-12-04T15:26:00;1.40;99.90
20068;DHT22;10194;50.824;7.134;2023-12-04T15:28:27;1.50;99.90
20068;DHT22;10194;50.824;7.134;2023-12-04T15:30:54;1.40;99.90
20068;DHT22;10194;50.824;7.134;2023-12-04T15:33:23;1.40;99.90
20068;DHT22;10194;50.824;7.134;2023-12-04T15:35:52;1.40;99.90
20068;DHT22;10194;50.824;7.134;2023-12-04T15:38:18;1.30;99.90
20068;DHT22;10194;50.824;7.134;2023-12-04T15:40:45;1.40;99.90
20068;DHT22;10194;50.824;7.134;2023-12-04T15:43:12;1.40;99.90
20068;DHT22;10194;50.824;7.134;2023-12-04T15:45:38;1.40;99.90
20068;DHT22;10194;50.824;7.134;2023-12-04T15:48:04;1.40;99.90
20068;DHT22;10194;50.824;7.134;2023-12-04T15:50:31;1.40;99.90
20068;DHT22;10194;50.824;7.134;2023-12-04T15:52:58;1.40;99.90